Time;durP1;ratioP1;P1;durP2;ratioP2;P2;SDS_P1;SDS_P2;PMS_P1;PMS_P2;Temp;Humidity;BMP_temperature;BMP_pressure;BME280_temperature;BME280_humidity;BME280_pressure;Samples;Min_cycle;Max_cycle;Signal;HPM_P1;HPM_P2
2023/04/17 00:00:14;;;;;;;61.75;25.25;;;8.50;99.90;;;;;;4983976;28;20041;-68
2023/04/17 00:02:40;;;;;;;65.05;26.55;;;8.50;99.90;;;;;;5004543;28;20091;-67
2023/04/17 00:05:09;;;;;;;63.88;25.17;;;8.50;99.90;;;;;;5009482;28;20042;-68
2023/04/17 00:07:37;;;;;;;59.87;23.67;;;8.50;99.90;;;;;;5001813;28;20033;-67
2023/04/17 00:10:06;;;;;;;63.95;25.65;;;8.50;99.90;;;;;;5006095;28;20039;-68
2023/04/17 00:12:31;;;;;;;58.22;24.15;;;8.60;99.90;;;;;;5011785;28;20122;-68
2023/04/17 00:14:57;;;;;;;69.30;25.35;;;8.50;99.90;;;;;;5011510;28;20029;-68
2023/04/17 00:17:22;;;;;;;62.22;24.92;;;8.50;99.90;;;;;;5004970;28;20037;-69
2023/04/17 00:19:49;;;;;;;68.43;26.20;;;8.60;99.90;;;;;;4999459;28;20037;-68
2023/04/17 00:22:14;;;;;;;62.55;25.23;;;8.50;99.90;;;;;;5007794;28;20061;-69
2023/04/17 00:24:40;;;;;;;59.85;26.15;;;8.60;99.90;;;;;;5011898;28;20072;-67
2023/04/17 00:27:05;;;;;;;66.25;26.38;;;8.60;99.90;;;;;;4993845;28;20062;-69
2023/04/17 00:29:32;;;;;;;66.30;25.00;;;8.60;99.90;;;;;;5001252;28;20045;-68
2023/04/17 00:31:58;;;;;;;60.72;24.95;;;8.60;99.90;;;;;;5002947;28;20722;-68
2023/04/17 00:34:24;;;;;;;61.83;24.83;;;8.60;99.90;;;;;;5003400;28;20037;-70
2023/04/17 00:36:49;;;;;;;57.92;24.70;;;8.60;99.90;;;;;;5009406;28;20056;-69
2023/04/17 00:39:15;;;;;;;67.78;26.05;;;8.60;99.90;;;;;;5004711;28;20052;-68
2023/04/17 00:41:41;;;;;;;61.80;25.88;;;8.60;99.90;;;;;;5006624;28;20397;-68
2023/04/17 00:44:06;;;;;;;59.38;25.23;;;8.60;99.90;;;;;;4990873;28;20045;-69
2023/04/17 00:46:32;;;;;;;62.92;26.10;;;8.60;99.90;;;;;;5010649;28;20667;-68
2023/04/17 00:48:58;;;;;;;55.13;25.35;;;8.60;99.90;;;;;;5006010;28;20454;-68
2023/04/17 00:51:24;;;;;;;56.85;24.60;;;8.60;99.90;;;;;;4995342;28;20034;-68
2023/04/17 00:53:50;;;;;;;56.28;24.80;;;8.60;99.90;;;;;;5003047;28;20029;-69
2023/04/17 00:56:16;;;;;;;59.20;25.30;;;8.60;99.90;;;;;;5013253;28;20532;-67
2023/04/17 00:58:42;;;;;;;52.60;23.55;;;8.60;99.90;;;;;;4994503;28;20057;-69
2023/04/17 01:01:08;;;;;;;59.53;25.17;;;8.60;99.90;;;;;;5009103;28;20037;-67
2023/04/17 01:03:34;;;;;;;57.35;24.35;;;8.60;99.90;;;;;;4996573;28;20044;-70
2023/04/17 01:06:00;;;;;;;57.70;25.90;;;8.60;99.90;;;;;;5004082;28;20041;-68
2023/04/17 01:08:26;;;;;;;55.72;24.52;;;8.60;99.90;;;;;;5005937;28;20480;-69
2023/04/17 01:10:52;;;;;;;52.40;24.52;;;8.60;99.90;;;;;;5008253;28;20038;-69
2023/04/17 01:13:17;;;;;;;57.72;24.65;;;8.60;99.90;;;;;;5015653;28;20037;-68
2023/04/17 01:15:43;;;;;;;61.15;25.13;;;8.60;99.90;;;;;;5012174;28;20611;-67
2023/04/17 01:18:09;;;;;;;59.30;26.65;;;8.60;99.90;;;;;;5013701;28;20445;-68
2023/04/17 01:20:35;;;;;;;57.30;25.45;;;8.60;99.90;;;;;;4995592;28;20474;-69
2023/04/17 01:23:01;;;;;;;54.78;24.50;;;8.60;99.90;;;;;;5010545;28;20131;-67
2023/04/17 01:25:27;;;;;;;60.63;25.20;;;8.60;99.90;;;;;;5028395;28;20041;-68
2023/04/17 01:27:53;;;;;;;58.65;24.70;;;8.60;99.90;;;;;;5011801;28;20049;-68
2023/04/17 01:30:19;;;;;;;55.70;25.38;;;8.60;99.90;;;;;;5014763;28;20474;-67
2023/04/17 01:32:45;;;;;;;57.05;24.42;;;8.70;99.90;;;;;;5013016;28;20033;-69
2023/04/17 01:35:11;;;;;;;54.03;24.85;;;8.70;99.90;;;;;;5010591;28;20505;-68
2023/04/17 01:37:36;;;;;;;56.53;24.42;;;8.60;99.90;;;;;;5010602;28;20128;-70
2023/04/17 01:40:05;;;;;;;59.05;23.90;;;8.70;99.90;;;;;;4999592;28;20477;-68
2023/04/17 01:42:32;;;;;;;61.25;23.85;;;8.60;99.90;;;;;;5016725;28;20049;-68
2023/04/17 01:44:58;;;;;;;56.35;24.42;;;8.60;99.90;;;;;;5012192;28;20362;-68
2023/04/17 01:47:24;;;;;;;57.33;25.15;;;8.60;99.90;;;;;;5010405;28;20030;-67
2023/04/17 01:49:49;;;;;;;60.83;25.23;;;8.70;99.90;;;;;;5006838;28;20095;-68
2023/04/17 01:52:15;;;;;;;61.80;25.02;;;8.60;99.90;;;;;;5021463;28;20036;-67
2023/04/17 01:54:40;;;;;;;55.90;24.63;;;8.60;99.90;;;;;;5004704;28;20059;-70
2023/04/17 01:57:06;;;;;;;62.85;26.10;;;8.60;99.90;;;;;;5008515;28;20159;-67
2023/04/17 01:59:32;;;;;;;67.93;27.90;;;8.60;99.90;;;;;;5011513;28;20060;-68
2023/04/17 02:01:57;;;;;;;60.47;25.83;;;8.60;99.90;;;;;;4990754;28;20111;-67
2023/04/17 02:04:23;;;;;;;65.30;25.50;;;8.60;99.90;;;;;;4993146;28;20033;-69
2023/04/17 02:06:48;;;;;;;63.00;25.38;;;8.60;99.90;;;;;;5011277;28;20037;-70
2023/04/17 02:09:14;;;;;;;65.80;26.83;;;8.60;99.90;;;;;;5009893;28;20531;-68
2023/04/17 02:11:40;;;;;;;63.65;26.73;;;8.60;99.90;;;;;;4994121;28;20164;-69
2023/04/17 02:14:05;;;;;;;65.25;27.60;;;8.60;99.90;;;;;;5012097;28;20041;-69
2023/04/17 02:16:31;;;;;;;67.68;27.88;;;8.60;99.90;;;;;;5012723;28;20041;-68
2023/04/17 02:18:56;;;;;;;63.13;26.63;;;8.60;99.90;;;;;;5012417;28;20138;-69
2023/04/17 02:21:22;;;;;;;66.40;27.50;;;8.60;99.90;;;;;;5008552;28;20103;-69
2023/04/17 02:23:48;;;;;;;68.45;27.20;;;8.60;99.90;;;;;;5008803;28;20053;-69
2023/04/17 02:26:14;;;;;;;65.93;28.65;;;8.60;99.90;;;;;;4993806;28;20041;-69
2023/04/17 02:28:42;;;;;;;61.97;26.85;;;8.60;99.90;;;;;;5011269;28;20044;-69
2023/04/17 02:31:08;;;;;;;64.78;28.10;;;8.60;99.90;;;;;;4993657;28;20489;-68
2023/04/17 02:33:35;;;;;;;59.20;26.42;;;8.60;99.90;;;;;;5013500;28;20068;-68
2023/04/17 02:36:01;;;;;;;63.25;27.65;;;8.60;99.90;;;;;;4990433;28;20041;-68
2023/04/17 02:38:29;;;;;;;70.45;27.38;;;8.60;99.90;;;;;;5008956;28;20056;-70
2023/04/17 02:40:55;;;;;;;64.15;27.98;;;8.60;99.90;;;;;;5011022;28;20045;-69
2023/04/17 02:43:21;;;;;;;61.75;26.73;;;8.60;99.90;;;;;;5012938;28;20045;-69
2023/04/17 02:45:46;;;;;;;62.28;26.65;;;8.50;99.90;;;;;;5013628;28;20041;-68
2023/04/17 02:48:12;;;;;;;63.67;27.25;;;8.50;99.90;;;;;;5011819;28;20038;-70
2023/04/17 02:50:37;;;;;;;69.40;29.25;;;8.50;99.90;;;;;;5011511;28;20041;-69
2023/04/17 02:53:03;;;;;;;65.35;27.27;;;8.50;99.90;;;;;;4999937;28;20033;-68
2023/04/17 02:55:29;;;;;;;66.13;28.00;;;8.50;99.90;;;;;;5005554;28;20047;-69
2023/04/17 02:57:54;;;;;;;71.40;29.08;;;8.60;99.90;;;;;;4992084;28;20049;-70
2023/04/17 03:00:21;;;;;;;73.47;28.75;;;8.60;99.90;;;;;;5023638;28;20127;-69
2023/04/17 03:02:47;;;;;;;64.50;27.08;;;8.60;99.90;;;;;;5010432;28;20041;-70
2023/04/17 03:05:13;;;;;;;74.38;29.48;;;8.60;99.90;;;;;;4993470;28;20493;-70
2023/04/17 03:07:39;;;;;;;74.07;28.23;;;8.60;99.90;;;;;;5028157;28;20087;-67
2023/04/17 03:10:05;;;;;;;73.88;28.63;;;8.50;99.90;;;;;;4994463;28;20041;-67
2023/04/17 03:12:31;;;;;;;73.40;27.27;;;8.50;99.90;;;;;;5004783;28;20096;-68
2023/04/17 03:14:57;;;;;;;77.85;29.67;;;8.50;99.90;;;;;;5012532;28;20045;-69
2023/04/17 03:17:22;;;;;;;84.18;31.10;;;8.50;99.90;;;;;;5011016;28;20541;-67
2023/04/17 03:19:48;;;;;;;73.60;26.73;;;8.50;99.90;;;;;;5011661;28;20485;-69
2023/04/17 03:22:13;;;;;;;82.63;29.80;;;8.50;99.90;;;;;;5008330;28;20588;-68
2023/04/17 03:24:40;;;;;;;78.35;26.75;;;8.50;99.90;;;;;;5010752;28;20132;-67
2023/04/17 03:27:06;;;;;;;77.80;28.25;;;8.50;99.90;;;;;;5013611;28;20045;-67
2023/04/17 03:29:31;;;;;;;75.10;26.85;;;8.50;99.90;;;;;;5009898;28;20107;-68
2023/04/17 03:31:57;;;;;;;77.07;27.98;;;8.50;99.90;;;;;;5005797;28;20466;-68
2023/04/17 03:34:22;;;;;;;68.90;27.00;;;8.50;99.90;;;;;;5008546;28;20033;-67
2023/04/17 03:36:48;;;;;;;71.55;25.27;;;8.40;99.90;;;;;;5012114;28;20091;-69
2023/04/17 03:39:14;;;;;;;72.53;26.25;;;8.40;99.90;;;;;;5011756;28;20084;-67
2023/04/17 03:41:39;;;;;;;68.07;25.52;;;8.40;99.90;;;;;;5011537;28;20037;-70
2023/04/17 03:44:05;;;;;;;70.75;27.45;;;8.40;99.90;;;;;;5006822;28;20049;-67
2023/04/17 03:46:31;;;;;;;74.95;27.58;;;8.40;99.90;;;;;;5008153;28;20045;-68
2023/04/17 03:48:57;;;;;;;77.00;25.55;;;8.40;99.90;;;;;;5012347;28;20095;-68
2023/04/17 03:51:22;;;;;;;74.57;27.50;;;8.40;99.90;;;;;;4991970;28;20037;-68
2023/04/17 03:53:48;;;;;;;67.80;24.75;;;8.40;99.90;;;;;;5008248;28;20072;-67
2023/04/17 03:56:14;;;;;;;71.47;27.27;;;8.40;99.90;;;;;;5005274;28;20040;-68
2023/04/17 03:58:39;;;;;;;67.35;26.02;;;8.40;99.90;;;;;;5023340;28;20478;-70
2023/04/17 04:01:09;;;;;;;69.60;25.55;;;8.40;99.90;;;;;;5016371;28;20169;-67
2023/04/17 04:03:35;;;;;;;62.80;25.83;;;8.40;99.90;;;;;;5007774;28;20037;-68
2023/04/17 04:06:01;;;;;;;65.78;26.35;;;8.40;99.90;;;;;;5009011;28;20041;-68
2023/04/17 04:08:27;;;;;;;69.43;25.52;;;8.40;99.90;;;;;;5002874;28;20083;-68
2023/04/17 04:10:53;;;;;;;60.10;24.25;;;8.40;99.90;;;;;;5003421;28;20034;-68
2023/04/17 04:13:18;;;;;;;70.68;26.23;;;8.30;99.90;;;;;;5004475;28;20087;-69
2023/04/17 04:15:44;;;;;;;66.18;25.08;;;8.30;99.90;;;;;;5002435;28;20033;-70
2023/04/17 04:18:09;;;;;;;68.45;26.25;;;8.30;99.90;;;;;;5001692;28;20072;-68
2023/04/17 04:20:35;;;;;;;64.20;25.55;;;8.30;99.90;;;;;;4986693;28;20037;-69
2023/04/17 04:23:02;;;;;;;67.45;26.00;;;8.30;99.90;;;;;;4992632;28;20045;-69
2023/04/17 04:25:28;;;;;;;69.47;25.88;;;8.30;99.90;;;;;;5005421;28;20042;-69
2023/04/17 04:27:55;;;;;;;66.38;25.10;;;8.30;99.90;;;;;;5005533;28;20532;-69
2023/04/17 04:30:21;;;;;;;64.20;25.30;;;8.30;99.90;;;;;;5010591;28;20049;-68
2023/04/17 04:32:46;;;;;;;65.65;24.63;;;8.30;99.90;;;;;;5005139;28;20033;-68
2023/04/17 04:35:13;;;;;;;60.22;25.30;;;8.30;99.90;;;;;;5013532;28;20034;-69
2023/04/17 04:37:41;;;;;;;56.65;23.42;;;8.30;99.90;;;;;;5015291;28;20052;-68
2023/04/17 04:40:11;;;;;;;53.72;23.63;;;8.20;99.90;;;;;;5017177;28;20389;-68
2023/04/17 04:42:38;;;;;;;53.58;22.70;;;8.30;99.90;;;;;;5018869;28;20072;-68
2023/04/17 04:45:05;;;;;;;56.65;21.98;;;8.30;99.90;;;;;;5014182;28;20037;-66
2023/04/17 04:47:30;;;;;;;57.20;22.85;;;8.30;99.90;;;;;;5012370;28;20040;-68
2023/04/17 04:49:56;;;;;;;50.85;21.92;;;8.30;99.90;;;;;;5008391;28;20037;-67
2023/04/17 04:52:21;;;;;;;56.03;23.27;;;8.20;99.90;;;;;;5000874;28;20049;-67
2023/04/17 04:54:47;;;;;;;54.40;21.40;;;8.20;99.90;;;;;;4997994;28;20087;-67
2023/04/17 04:57:12;;;;;;;52.85;21.10;;;8.20;99.90;;;;;;5007208;28;20041;-67
2023/04/17 04:59:38;;;;;;;47.25;19.88;;;8.20;99.90;;;;;;5012550;28;20156;-67
2023/04/17 05:02:04;;;;;;;45.75;20.25;;;8.20;99.90;;;;;;5012036;28;20417;-67
2023/04/17 05:04:29;;;;;;;46.03;20.73;;;8.10;99.90;;;;;;5010789;28;20080;-68
2023/04/17 05:06:56;;;;;;;46.28;19.60;;;8.10;99.90;;;;;;5030512;28;20041;-67
2023/04/17 05:09:21;;;;;;;51.80;21.20;;;8.10;99.90;;;;;;5014087;28;20045;-66
2023/04/17 05:11:47;;;;;;;46.58;20.42;;;8.10;99.90;;;;;;5001098;28;20026;-68
2023/04/17 05:14:13;;;;;;;45.67;19.27;;;8.10;99.90;;;;;;5018749;28;20359;-67
2023/04/17 05:16:39;;;;;;;49.78;21.27;;;8.10;99.90;;;;;;4995548;28;20392;-67
2023/04/17 05:19:05;;;;;;;48.10;20.42;;;8.00;99.90;;;;;;5015957;28;20429;-68
2023/04/17 05:21:31;;;;;;;47.00;19.65;;;8.00;99.90;;;;;;5011624;28;20045;-67
2023/04/17 05:23:56;;;;;;;52.70;19.98;;;8.00;99.90;;;;;;5014750;28;20459;-68
2023/04/17 05:26:22;;;;;;;50.03;19.98;;;8.00;99.90;;;;;;5016682;28;20037;-69
2023/04/17 05:28:47;;;;;;;46.92;19.67;;;8.10;99.90;;;;;;5015296;28;20084;-68
2023/04/17 05:31:13;;;;;;;51.03;21.27;;;8.00;99.90;;;;;;4998482;28;20042;-69
2023/04/17 05:33:39;;;;;;;48.08;20.17;;;8.10;99.90;;;;;;5004708;28;20048;-68
2023/04/17 05:36:06;;;;;;;50.63;20.23;;;8.10;99.90;;;;;;5010878;28;20163;-70
2023/04/17 05:38:31;;;;;;;56.70;20.50;;;8.10;99.90;;;;;;5005683;28;20799;-68
2023/04/17 05:40:57;;;;;;;47.00;20.92;;;8.10;99.90;;;;;;4995924;28;20033;-68
2023/04/17 05:43:23;;;;;;;49.35;20.30;;;8.10;99.90;;;;;;5007678;28;20556;-68
2023/04/17 05:45:49;;;;;;;51.05;19.40;;;8.10;99.90;;;;;;4996185;28;20432;-68
2023/04/17 05:48:15;;;;;;;47.45;21.45;;;8.10;99.90;;;;;;4998923;28;20042;-67
2023/04/17 05:50:40;;;;;;;47.08;21.45;;;8.10;99.90;;;;;;4996191;28;20174;-70
2023/04/17 05:53:06;;;;;;;46.58;21.70;;;8.10;99.90;;;;;;5000664;28;20041;-68
2023/04/17 05:55:31;;;;;;;50.47;22.02;;;8.10;99.90;;;;;;5002140;28;20065;-69
2023/04/17 05:57:57;;;;;;;51.50;21.05;;;8.20;99.90;;;;;;5007439;28;20038;-68
2023/04/17 06:00:23;;;;;;;50.50;21.25;;;8.20;99.90;;;;;;4999209;28;20057;-67
2023/04/17 06:02:49;;;;;;;47.92;21.70;;;8.20;99.90;;;;;;4996122;28;20060;-68
2023/04/17 06:05:16;;;;;;;46.58;21.67;;;8.20;99.90;;;;;;5001103;28;20054;-68
2023/04/17 06:07:42;;;;;;;51.22;21.45;;;8.30;99.90;;;;;;4999811;28;20048;-67
2023/04/17 06:10:09;;;;;;;52.38;22.42;;;8.30;99.90;;;;;;4983520;28;20088;-68
2023/04/17 06:12:36;;;;;;;47.63;20.50;;;8.40;99.90;;;;;;5006886;28;20045;-68
2023/04/17 06:15:02;;;;;;;45.53;20.13;;;8.40;99.90;;;;;;4998354;28;20477;-67
2023/04/17 06:17:29;;;;;;;50.30;20.95;;;8.40;99.90;;;;;;4998003;28;20037;-69
2023/04/17 06:19:55;;;;;;;49.58;22.13;;;8.40;99.90;;;;;;5005483;28;20045;-67
2023/04/17 06:22:20;;;;;;;49.47;22.67;;;8.50;99.90;;;;;;5028587;28;20465;-68
2023/04/17 06:24:46;;;;;;;55.38;23.98;;;8.50;99.90;;;;;;5005125;28;20124;-68
2023/04/17 06:27:12;;;;;;;52.25;21.98;;;8.50;99.90;;;;;;4990954;28;20046;-67
2023/04/17 06:29:37;;;;;;;53.10;23.17;;;8.50;99.90;;;;;;4992276;28;20045;-67
2023/04/17 06:32:03;;;;;;;52.97;23.35;;;8.60;99.90;;;;;;5011483;28;20034;-68
2023/04/17 06:34:29;;;;;;;50.25;23.02;;;8.50;99.90;;;;;;5010538;28;20838;-68
2023/04/17 06:36:55;;;;;;;52.95;21.38;;;8.60;99.90;;;;;;4991399;28;20116;-68
2023/04/17 06:39:21;;;;;;;56.05;24.40;;;8.60;99.90;;;;;;5007202;28;20037;-67
2023/04/17 06:41:49;;;;;;;55.47;23.48;;;8.70;99.90;;;;;;5011557;28;20047;-68
2023/04/17 06:44:14;;;;;;;51.80;22.25;;;8.70;99.90;;;;;;5012237;28;20454;-67
2023/04/17 06:46:40;;;;;;;53.60;22.52;;;8.80;99.90;;;;;;4996151;28;20068;-68
2023/04/17 06:49:05;;;;;;;52.22;23.75;;;8.90;99.90;;;;;;5023487;28;20107;-70
2023/04/17 06:51:31;;;;;;;54.75;23.55;;;8.90;99.90;;;;;;5009272;28;20472;-69
2023/04/17 06:53:58;;;;;;;52.72;25.48;;;9.00;99.90;;;;;;4980491;28;20037;-68
2023/04/17 06:56:23;;;;;;;57.50;24.40;;;9.00;99.90;;;;;;5005775;28;20088;-68
2023/04/17 06:58:49;;;;;;;56.33;25.08;;;9.10;99.90;;;;;;5006049;28;20093;-68
2023/04/17 07:01:15;;;;;;;57.35;25.30;;;9.20;99.90;;;;;;5011960;28;20393;-68
2023/04/17 07:03:41;;;;;;;59.22;25.30;;;9.20;99.90;;;;;;5013370;28;20045;-69
2023/04/17 07:06:07;;;;;;;57.50;24.90;;;9.30;99.90;;;;;;5008393;28;20153;-69
2023/04/17 07:08:33;;;;;;;55.58;25.95;;;9.30;99.90;;;;;;5023589;28;20095;-68
2023/04/17 07:11:00;;;;;;;55.80;26.15;;;9.40;99.90;;;;;;5010235;28;20033;-66
2023/04/17 07:13:29;;;;;;;56.78;25.85;;;9.50;99.90;;;;;;4992444;28;20069;-68
2023/04/17 07:15:56;;;;;;;57.47;25.97;;;9.60;99.90;;;;;;5012914;28;20033;-68
2023/04/17 07:18:24;;;;;;;54.28;25.60;;;9.80;99.90;;;;;;5006809;28;20033;-67
2023/04/17 07:20:50;;;;;;;53.10;26.17;;;9.90;99.90;;;;;;5006529;28;20063;-67
2023/04/17 07:23:16;;;;;;;56.20;26.27;;;10.10;99.90;;;;;;4997997;28;20537;-68
2023/04/17 07:25:41;;;;;;;53.80;25.65;;;10.20;99.90;;;;;;4998997;28;20052;-69
2023/04/17 07:28:08;;;;;;;51.30;25.70;;;10.40;99.90;;;;;;5011451;28;20128;-69
2023/04/17 07:30:34;;;;;;;54.45;26.02;;;10.40;99.90;;;;;;5013512;28;20037;-67
2023/04/17 07:33:00;;;;;;;50.13;26.33;;;10.50;99.90;;;;;;5013258;28;20065;-67
2023/04/17 07:35:26;;;;;;;49.65;25.13;;;10.60;99.90;;;;;;4994071;28;20385;-67
2023/04/17 07:37:52;;;;;;;50.22;24.90;;;10.70;99.90;;;;;;5005574;28;20053;-68
2023/04/17 07:40:18;;;;;;;50.08;25.70;;;10.80;99.90;;;;;;5010851;28;20537;-69
2023/04/17 07:42:43;;;;;;;47.40;24.67;;;10.90;99.90;;;;;;5013571;28;20072;-68
2023/04/17 07:45:09;;;;;;;47.88;25.40;;;11.00;99.90;;;;;;5012810;28;20137;-70
2023/04/17 07:47:35;;;;;;;48.03;26.48;;;11.20;99.90;;;;;;4998265;28;20045;-69
2023/04/17 07:50:02;;;;;;;45.80;25.27;;;11.60;99.90;;;;;;4989874;28;20121;-69
2023/04/17 07:52:28;;;;;;;43.65;23.67;;;11.80;99.90;;;;;;4976662;28;20033;-69
2023/04/17 07:54:55;;;;;;;44.17;23.33;;;12.00;99.90;;;;;;5005539;28;20073;-69
2023/04/17 07:57:21;;;;;;;43.47;24.80;;;12.10;99.90;;;;;;4991954;28;20171;-69
2023/04/17 07:59:47;;;;;;;44.33;23.23;;;12.30;99.90;;;;;;4989612;28;20188;-70
2023/04/17 08:02:12;;;;;;;39.53;23.27;;;12.30;99.90;;;;;;4988992;28;20037;-69
2023/04/17 08:04:38;;;;;;;39.22;24.13;;;12.50;99.90;;;;;;4987866;28;20057;-70
2023/04/17 08:07:05;;;;;;;38.22;21.88;;;12.50;99.90;;;;;;4993390;28;20038;-69
2023/04/17 08:09:31;;;;;;;37.50;22.98;;;12.40;99.90;;;;;;4973890;28;20045;-69
2023/04/17 08:11:57;;;;;;;35.40;21.15;;;12.50;99.90;;;;;;4992668;28;20478;-69
2023/04/17 08:14:23;;;;;;;33.78;21.92;;;12.50;99.90;;;;;;4983781;28;20086;-68
2023/04/17 08:16:49;;;;;;;34.88;20.83;;;12.60;99.90;;;;;;4990345;28;20077;-69
2023/04/17 08:19:14;;;;;;;35.83;21.98;;;12.70;99.90;;;;;;4989170;28;20482;-69
2023/04/17 08:21:40;;;;;;;39.72;22.23;;;12.70;99.90;;;;;;4993906;28;20076;-68
2023/04/17 08:24:06;;;;;;;33.22;21.50;;;12.70;99.90;;;;;;4991925;28;20045;-68
2023/04/17 08:26:32;;;;;;;35.65;22.15;;;12.70;99.90;;;;;;4985759;28;20531;-69
2023/04/17 08:29:01;;;;;;;40.47;21.83;;;12.80;99.90;;;;;;4976762;28;20037;-68
2023/04/17 08:31:27;;;;;;;35.28;20.90;;;12.80;99.90;;;;;;4991986;28;20073;-69
2023/04/17 08:33:53;;;;;;;34.58;20.38;;;12.90;99.90;;;;;;4990967;28;20042;-66
2023/04/17 08:36:19;;;;;;;34.10;20.10;;;13.00;99.90;;;;;;4992500;28;20473;-68
2023/04/17 08:38:46;;;;;;;32.72;20.40;;;13.00;99.90;;;;;;4971325;28;20046;-69
2023/04/17 08:41:19;;;;;;;34.05;20.50;;;13.10;99.90;;;;;;4992368;28;20042;-69
2023/04/17 08:43:50;;;;;;;31.02;19.60;;;13.20;99.90;;;;;;4975699;28;20046;-68
2023/04/17 08:46:19;;;;;;;28.70;18.80;;;13.30;99.90;;;;;;4993337;28;20486;-69
2023/04/17 08:48:45;;;;;;;29.55;20.38;;;13.30;99.90;;;;;;4991769;28;20037;-68
2023/04/17 08:51:11;;;;;;;29.70;19.92;;;13.50;99.90;;;;;;4992037;28;20371;-68
2023/04/17 08:53:36;;;;;;;28.95;18.50;;;13.50;99.90;;;;;;4991492;28;20474;-69
2023/04/17 08:56:06;;;;;;;29.52;19.10;;;13.70;99.90;;;;;;4966525;28;20033;-67
2023/04/17 08:58:32;;;;;;;29.92;20.15;;;13.80;99.90;;;;;;4997807;28;20108;-69
2023/04/17 09:01:08;;;;;;;28.88;20.02;;;13.90;99.90;;;;;;5011279;28;20095;-68
2023/04/17 09:03:46;;;;;;;26.27;18.27;;;14.00;99.90;;;;;;5006546;28;20527;-69
2023/04/17 09:06:12;;;;;;;28.85;18.25;;;14.40;99.90;;;;;;4992390;28;20515;-68
2023/04/17 09:08:52;;;;;;;29.40;20.33;;;14.60;99.90;;;;;;5010941;28;20175;-70
2023/04/17 09:11:18;;;;;;;28.13;17.95;;;14.70;99.90;;;;;;5014120;28;20107;-68
2023/04/17 09:13:43;;;;;;;25.67;17.42;;;14.90;99.90;;;;;;5011638;28;20116;-67
2023/04/17 09:16:18;;;;;;;26.30;18.02;;;15.20;99.90;;;;;;5010430;28;20667;-67
2023/04/17 09:18:48;;;;;;;27.65;18.08;;;15.30;99.90;;;;;;5011486;28;20073;-68
2023/04/17 09:21:20;;;;;;;27.27;18.00;;;15.30;99.90;;;;;;5013931;28;20038;-67
2023/04/17 09:23:54;;;;;;;26.25;17.77;;;15.30;99.90;;;;;;4997914;28;20094;-68
2023/04/17 09:26:25;;;;;;;24.33;16.80;;;15.20;99.90;;;;;;5017570;28;20504;-67
2023/04/17 09:29:09;;;;;;;22.55;16.30;;;15.20;99.90;;;;;;5016445;28;20041;-68
2023/04/17 09:31:37;;;;;;;24.65;17.13;;;15.30;99.90;;;;;;5010007;28;20042;-70
2023/04/17 09:34:09;;;;;;;23.23;16.60;;;15.40;99.90;;;;;;4996289;28;20064;-67
2023/04/17 09:36:37;;;;;;;24.38;15.90;;;15.40;99.90;;;;;;5010186;28;20080;-66
2023/04/17 09:39:25;;;;;;;20.85;15.43;;;15.50;99.90;;;;;;5013029;28;20064;-69
2023/04/17 09:42:05;;;;;;;21.55;15.15;;;15.50;99.90;;;;;;5014933;28;20048;-69
2023/04/17 09:44:30;;;;;;;23.90;16.55;;;15.60;99.90;;;;;;5012916;28;20049;-70
2023/04/17 09:46:57;;;;;;;23.50;15.77;;;15.70;99.90;;;;;;5013887;28;20031;-67
2023/04/17 09:49:33;;;;;;;20.23;14.80;;;15.60;99.90;;;;;;5014280;28;20489;-69
2023/04/17 09:51:58;;;;;;;24.00;15.15;;;15.80;99.90;;;;;;5031584;28;20034;-70
2023/04/17 09:54:25;;;;;;;21.08;14.68;;;15.70;99.90;;;;;;4992331;28;20033;-70
2023/04/17 09:56:54;;;;;;;19.75;14.35;;;15.60;99.90;;;;;;5015370;28;20069;-67
2023/04/17 09:59:22;;;;;;;18.67;14.55;;;15.60;99.90;;;;;;5005585;28;20065;-68
2023/04/17 10:01:49;;;;;;;19.92;14.27;;;15.80;99.90;;;;;;5011507;28;20490;-66
2023/04/17 10:04:14;;;;;;;21.13;15.00;;;16.00;99.90;;;;;;5010487;28;20427;-67
2023/04/17 10:06:40;;;;;;;21.95;13.77;;;16.10;99.70;;;;;;5015037;28;20030;-68
2023/04/17 10:09:07;;;;;;;18.60;13.73;;;16.30;99.20;;;;;;5002869;28;20042;-66
2023/04/17 10:11:39;;;;;;;24.10;15.55;;;16.70;96.90;;;;;;4995251;28;20084;-71
2023/04/17 10:14:26;;;;;;;23.45;15.88;;;16.80;95.90;;;;;;4986935;28;20390;-69
2023/04/17 10:16:53;;;;;;;21.73;14.90;;;16.80;94.70;;;;;;5009628;28;20070;-69
2023/04/17 10:19:33;;;;;;;22.70;14.70;;;17.00;95.30;;;;;;4993519;28;20068;-68
2023/04/17 10:22:16;;;;;;;24.92;16.77;;;17.50;92.80;;;;;;5013514;28;20038;-69
2023/04/17 10:25:11;;;;;;;19.98;13.60;;;17.50;90.10;;;;;;4983184;28;20077;-70
2023/04/17 10:27:40;;;;;;;21.45;14.63;;;17.40;91.90;;;;;;5010368;28;20060;-69
2023/04/17 10:30:09;;;;;;;21.20;14.35;;;17.20;91.90;;;;;;5007701;28;20050;-68
2023/04/17 10:32:35;;;;;;;22.30;14.75;;;17.10;91.00;;;;;;5004073;28;20462;-70
2023/04/17 10:35:21;;;;;;;19.80;13.45;;;16.90;90.70;;;;;;5009913;28;20038;-67
2023/04/17 10:37:49;;;;;;;21.05;14.85;;;16.80;87.40;;;;;;4985377;28;20165;-68
2023/04/17 10:40:22;;;;;;;19.83;15.02;;;17.00;90.60;;;;;;4993616;28;20046;-71
2023/04/17 10:43:10;;;;;;;19.85;14.77;;;16.90;90.20;;;;;;4998866;28;20123;-68
2023/04/17 10:46:00;;;;;;;19.45;14.05;;;16.90;83.00;;;;;;5023322;28;20056;-70
2023/04/17 10:48:27;;;;;;;;;;;16.80;86.00;;;;;;4994583;28;20046;-66
2023/04/17 10:50:54;;;;;;;18.52;13.85;;;17.00;86.50;;;;;;5010280;28;19924;-66
2023/04/17 10:53:39;;;;;;;19.63;13.25;;;16.80;89.00;;;;;;4996418;28;20033;-69
2023/04/17 10:56:05;;;;;;;18.50;13.57;;;17.00;83.50;;;;;;4993983;28;20050;-70
2023/04/17 10:58:31;;;;;;;17.77;13.90;;;17.00;84.90;;;;;;4992479;28;20057;-71
2023/04/17 11:01:02;;;;;;;18.65;13.05;;;16.90;84.00;;;;;;4995217;28;20717;-68
2023/04/17 11:03:29;;;;;;;17.70;13.43;;;16.70;82.70;;;;;;4990863;28;20398;-69
2023/04/17 11:05:57;;;;;;;20.77;13.90;;;16.90;83.50;;;;;;4976172;28;20050;-68
2023/04/17 11:08:23;;;;;;;17.30;12.77;;;16.90;82.20;;;;;;4976517;28;20045;-66
2023/04/17 11:10:54;;;;;;;16.98;11.85;;;17.10;82.40;;;;;;5011265;28;20501;-66
2023/04/17 11:13:20;;;;;;;18.00;12.43;;;17.30;81.70;;;;;;5012500;28;20038;-66
2023/04/17 11:15:46;;;;;;;15.82;11.60;;;17.40;81.10;;;;;;4995007;28;20487;-66
2023/04/17 11:18:12;;;;;;;15.10;11.80;;;17.30;79.10;;;;;;5011114;28;20040;-69
2023/04/17 11:20:38;;;;;;;18.80;12.30;;;17.30;79.30;;;;;;4992866;28;20042;-69
2023/04/17 11:23:06;;;;;;;14.65;11.68;;;17.60;78.60;;;;;;4992971;28;20536;-70
2023/04/17 11:25:32;;;;;;;19.13;12.23;;;17.70;76.70;;;;;;4993474;28;20054;-69
2023/04/17 11:28:00;;;;;;;16.33;11.55;;;17.70;75.60;;;;;;5012602;28;20034;-66
2023/04/17 11:30:34;;;;;;;17.25;12.50;;;17.80;75.20;;;;;;4994402;28;20508;-68
2023/04/17 11:33:02;;;;;;;17.83;12.18;;;17.80;73.10;;;;;;4991795;28;20025;-67
2023/04/17 11:35:29;;;;;;;15.68;12.10;;;18.00;73.50;;;;;;5010811;28;20042;-67
2023/04/17 11:38:19;;;;;;;14.43;11.70;;;18.10;73.20;;;;;;4992268;28;20042;-66
2023/04/17 11:41:05;;;;;;;;;;;18.00;70.50;;;;;;5007079;28;20045;-67
2023/04/17 11:43:35;;;;;;;20.67;13.15;;;17.80;70.50;;;;;;5005435;28;20273;-70
2023/04/17 11:46:01;;;;;;;17.15;12.50;;;17.80;72.70;;;;;;4991977;28;20034;-67
2023/04/17 11:48:28;;;;;;;18.73;13.23;;;18.00;72.60;;;;;;4991517;28;20523;-69
2023/04/17 11:50:56;;;;;;;22.20;14.13;;;18.10;71.50;;;;;;4988547;28;20038;-67
2023/04/17 11:53:22;;;;;;;19.98;12.63;;;18.30;70.00;;;;;;4992436;28;20041;-66
2023/04/17 11:55:48;;;;;;;18.95;12.95;;;18.20;71.20;;;;;;4988732;28;20038;-67
2023/04/17 11:58:14;;;;;;;17.02;12.95;;;18.40;69.70;;;;;;4990915;28;20066;-70
2023/04/17 12:00:40;;;;;;;17.95;13.18;;;18.20;68.70;;;;;;5012728;28;20045;-66
2023/04/17 12:03:33;;;;;;;17.73;12.55;;;17.90;67.80;;;;;;4995098;28;20041;-69
2023/04/17 12:06:01;;;;;;;19.45;13.40;;;17.80;66.30;;;;;;5011616;28;20056;-70
2023/04/17 12:08:28;;;;;;;17.95;12.80;;;17.90;67.70;;;;;;5010254;28;20037;-69
2023/04/17 12:10:54;;;;;;;22.13;12.88;;;18.10;67.90;;;;;;4996752;28;20029;-66
2023/04/17 12:13:20;;;;;;;20.33;12.52;;;18.20;67.10;;;;;;5012575;28;20048;-68
2023/04/17 12:15:46;;;;;;;16.60;12.75;;;18.40;67.40;;;;;;5012268;28;20389;-69
2023/04/17 12:18:11;;;;;;;17.92;12.65;;;18.60;66.60;;;;;;5009943;28;20499;-67
2023/04/17 12:20:37;;;;;;;18.35;13.50;;;18.60;66.30;;;;;;5009822;28;20130;-70
2023/04/17 12:23:04;;;;;;;19.85;13.65;;;18.50;66.00;;;;;;5009708;28;20034;-68
2023/04/17 12:25:34;;;;;;;17.65;12.82;;;18.60;66.00;;;;;;5011572;28;20041;-67
2023/04/17 12:28:03;;;;;;;17.77;12.40;;;18.60;65.90;;;;;;5012380;28;20460;-68
2023/04/17 12:30:29;;;;;;;16.70;12.35;;;18.40;64.90;;;;;;5011311;28;20300;-70
2023/04/17 12:32:55;;;;;;;15.68;11.23;;;18.40;65.20;;;;;;4995653;28;20367;-69